Time;durP1;ratioP1;P1;durP2;ratioP2;P2;SDS_P1;SDS_P2;PMS_P1;PMS_P2;Temp;Humidity;BMP_temperature;BMP_pressure;BME280_temperature;BME280_humidity;BME280_pressure;Samples;Min_cycle;Max_cycle;Signal;HPM_P1;HPM_P2
2021/06/02 00:01:19;;;;;;;10.60;9.55;;;11.90;64.10;;;;;;5184129;28;20045;-72
2021/06/02 00:04:18;;;;;;;10.48;9.48;;;11.80;64.00;;;;;;5186520;28;20025;-72
2021/06/02 00:07:09;;;;;;;10.32;9.43;;;11.80;64.00;;;;;;5185754;28;20030;-73
2021/06/02 00:09:42;;;;;;;10.80;9.80;;;11.80;63.90;;;;;;5182748;28;20060;-73
2021/06/02 00:12:14;;;;;;;10.40;9.50;;;11.80;64.20;;;;;;5183791;28;20080;-73
2021/06/02 00:14:46;;;;;;;10.65;9.55;;;11.70;64.80;;;;;;5184393;28;20571;-73
2021/06/02 00:17:18;;;;;;;10.48;9.57;;;11.80;64.10;;;;;;5185395;28;20156;-74
2021/06/02 00:19:50;;;;;;;10.52;9.48;;;11.70;65.30;;;;;;5187649;28;20118;-73
2021/06/02 00:22:23;;;;;;;10.50;9.60;;;11.70;65.40;;;;;;5169147;28;20049;-72
2021/06/02 00:24:56;;;;;;;10.85;9.98;;;11.70;64.80;;;;;;5183996;28;20117;-73
2021/06/02 00:27:29;;;;;;;11.15;10.25;;;11.70;64.40;;;;;;5185979;28;20070;-73
2021/06/02 00:30:05;;;;;;;11.20;10.30;;;11.70;64.20;;;;;;5186962;28;20052;-73
2021/06/02 00:32:39;;;;;;;10.90;9.90;;;11.70;65.10;;;;;;5183733;28;20081;-72
2021/06/02 00:35:17;;;;;;;11.05;10.07;;;11.60;64.80;;;;;;5172050;28;20521;-73
2021/06/02 00:37:51;;;;;;;10.73;9.82;;;11.50;65.90;;;;;;5189679;28;20049;-72
2021/06/02 00:40:37;;;;;;;10.48;9.57;;;11.50;65.50;;;;;;5187043;28;20053;-72
2021/06/02 00:43:10;;;;;;;11.00;10.10;;;11.50;64.30;;;;;;5188532;28;20228;-72
2021/06/02 00:45:46;;;;;;;11.02;10.10;;;11.50;65.20;;;;;;5187649;28;20077;-73
2021/06/02 00:48:19;;;;;;;10.70;9.80;;;11.40;65.80;;;;;;5190769;28;20386;-72
2021/06/02 00:50:51;;;;;;;9.85;9.05;;;11.40;65.40;;;;;;5192505;28;20133;-72
2021/06/02 00:53:23;;;;;;;10.63;9.73;;;11.30;66.50;;;;;;5188851;28;20475;-73
2021/06/02 00:56:15;;;;;;;10.57;9.57;;;11.30;66.80;;;;;;5187693;28;20045;-73
2021/06/02 00:58:50;;;;;;;10.75;9.85;;;11.20;67.20;;;;;;5189226;28;20069;-73
2021/06/02 01:01:22;;;;;;;10.70;9.73;;;11.20;66.20;;;;;;5188133;28;20329;-72
2021/06/02 01:03:56;;;;;;;10.32;9.32;;;11.20;66.50;;;;;;5189959;28;20095;-72
2021/06/02 01:06:30;;;;;;;10.80;9.90;;;11.20;67.00;;;;;;5187369;28;20037;-72
2021/06/02 01:09:07;;;;;;;10.60;9.50;;;11.20;66.50;;;;;;5189972;28;20053;-72
2021/06/02 01:11:41;;;;;;;10.77;9.77;;;11.20;66.60;;;;;;5187097;28;20041;-73
2021/06/02 01:14:14;;;;;;;10.30;9.43;;;11.20;67.10;;;;;;5190082;28;20597;-72
2021/06/02 01:16:46;;;;;;;10.63;9.70;;;11.10;66.30;;;;;;5187645;28;20665;-72
2021/06/02 01:19:22;;;;;;;10.45;9.55;;;11.00;67.70;;;;;;5189211;28;20366;-72
2021/06/02 01:22:01;;;;;;;10.55;9.60;;;11.00;67.50;;;;;;5173229;28;20395;-72
2021/06/02 01:24:33;;;;;;;11.15;10.15;;;11.00;67.70;;;;;;5185771;28;20117;-72
2021/06/02 01:27:08;;;;;;;11.45;10.30;;;11.00;67.70;;;;;;5188658;28;20120;-72
2021/06/02 01:29:47;;;;;;;10.75;9.75;;;10.90;67.00;;;;;;5189453;28;20633;-72
2021/06/02 01:32:37;;;;;;;11.32;10.30;;;11.00;68.20;;;;;;5189322;28;20045;-73
2021/06/02 01:35:36;;;;;;;12.25;10.45;;;10.90;68.30;;;;;;5188233;28;20045;-71
2021/06/02 01:38:30;;;;;;;11.20;10.30;;;10.90;68.00;;;;;;5185483;28;20803;-72
2021/06/02 01:41:07;;;;;;;11.43;10.35;;;10.80;67.80;;;;;;5185710;28;20077;-71
2021/06/02 01:44:20;;;;;;;10.80;9.73;;;10.80;67.40;;;;;;5190303;28;20130;-72
2021/06/02 01:47:23;;;;;;;10.70;9.80;;;10.80;66.70;;;;;;5170540;28;20049;-73
2021/06/02 01:50:32;;;;;;;10.77;9.77;;;10.80;67.20;;;;;;5187740;28;20042;-72
2021/06/02 01:53:26;;;;;;;10.70;9.80;;;10.80;68.20;;;;;;5188251;28;20502;-72
2021/06/02 01:56:17;;;;;;;11.38;9.52;;;10.70;68.70;;;;;;5187753;28;20065;-71
2021/06/02 01:59:16;;;;;;;10.70;9.60;;;10.60;68.90;;;;;;5187648;28;20404;-73
2021/06/02 02:02:06;;;;;;;10.45;9.35;;;10.60;70.30;;;;;;5188202;28;20092;-72
2021/06/02 02:05:09;;;;;;;10.23;9.23;;;10.50;69.50;;;;;;5188313;28;20513;-72
2021/06/02 02:08:01;;;;;;;9.85;9.05;;;10.50;69.30;;;;;;5170159;28;20093;-73
2021/06/02 02:10:48;;;;;;;9.65;8.80;;;10.50;70.30;;;;;;5188014;28;20045;-71
2021/06/02 02:13:54;;;;;;;9.65;8.85;;;10.50;70.10;;;;;;5186791;28;20494;-72
2021/06/02 02:16:50;;;;;;;11.02;9.20;;;10.50;69.50;;;;;;5187299;28;20052;-72
2021/06/02 02:19:46;;;;;;;11.00;9.23;;;10.50;69.60;;;;;;5187063;28;20488;-72
2021/06/02 02:22:24;;;;;;;10.60;9.57;;;10.50;69.20;;;;;;5187192;28;20614;-72
2021/06/02 02:25:13;;;;;;;11.10;10.13;;;10.50;70.20;;;;;;5188876;28;20076;-72
2021/06/02 02:28:11;;;;;;;10.18;9.30;;;10.50;69.30;;;;;;5188900;28;20058;-72
2021/06/02 02:30:52;;;;;;;10.23;9.40;;;10.50;68.80;;;;;;5187104;28;20046;-72
2021/06/02 02:33:44;;;;;;;10.38;9.48;;;10.50;69.50;;;;;;5187506;28;20049;-72
2021/06/02 02:36:31;;;;;;;10.98;9.90;;;10.50;70.10;;;;;;5187536;28;20512;-73
2021/06/02 02:39:24;;;;;;;11.55;10.43;;;10.50;68.70;;;;;;5191741;28;20120;-73
2021/06/02 02:42:24;;;;;;;10.57;9.68;;;10.40;69.30;;;;;;5185348;28;20042;-72
2021/06/02 02:45:14;;;;;;;10.60;9.60;;;10.30;69.20;;;;;;5188025;28;20041;-74
2021/06/02 02:48:08;;;;;;;10.32;9.43;;;10.20;69.70;;;;;;5184461;28;20124;-73
2021/06/02 02:50:58;;;;;;;10.27;9.27;;;10.20;70.50;;;;;;5184777;28;20053;-73
2021/06/02 02:53:50;;;;;;;10.45;9.45;;;10.20;71.10;;;;;;5186440;28;20096;-73
2021/06/02 02:56:28;;;;;;;9.77;8.98;;;10.20;70.80;;;;;;5183207;28;20048;-74
2021/06/02 02:59:14;;;;;;;10.25;9.25;;;10.20;70.70;;;;;;5189273;28;20147;-72
2021/06/02 03:01:54;;;;;;;9.85;8.95;;;10.20;70.60;;;;;;5185402;28;20120;-74
2021/06/02 03:04:28;;;;;;;10.77;9.77;;;10.30;70.60;;;;;;5169557;28;20124;-72
2021/06/02 03:07:03;;;;;;;10.10;9.10;;;10.30;69.60;;;;;;5187395;28;20314;-73
2021/06/02 03:09:52;;;;;;;10.73;9.73;;;10.10;70.20;;;;;;5190673;28;20661;-73
2021/06/02 03:12:47;;;;;;;10.30;9.30;;;10.00;70.30;;;;;;5187275;28;20046;-74
2021/06/02 03:15:43;;;;;;;10.75;9.75;;;10.00;70.30;;;;;;5167150;28;20783;-74
2021/06/02 03:18:20;;;;;;;11.27;10.15;;;10.00;69.30;;;;;;5166991;28;20128;-73
2021/06/02 03:21:18;;;;;;;10.60;9.52;;;10.00;69.50;;;;;;5187194;28;20056;-73
2021/06/02 03:24:08;;;;;;;10.55;9.50;;;10.00;70.10;;;;;;5184405;28;20460;-73
2021/06/02 03:26:49;;;;;;;10.63;9.63;;;10.00;71.00;;;;;;5184847;28;20131;-73
2021/06/02 03:29:39;;;;;;;;;;;10.00;70.70;;;;;;5185210;28;20096;-73
2021/06/02 03:32:25;;;;;;;10.43;9.48;;;10.00;70.80;;;;;;5187447;28;20018;-74
2021/06/02 03:35:16;;;;;;;10.30;9.40;;;10.00;70.80;;;;;;5188201;28;20044;-73
2021/06/02 03:37:57;;;;;;;9.60;8.70;;;10.00;70.80;;;;;;5185820;28;20112;-74
2021/06/02 03:40:52;;;;;;;10.23;9.25;;;10.00;71.60;;;;;;5186938;28;20096;-73
2021/06/02 03:43:40;;;;;;;9.68;8.80;;;10.00;71.30;;;;;;5185654;28;20100;-74
2021/06/02 03:46:38;;;;;;;10.18;9.27;;;10.10;71.30;;;;;;5185989;28;20158;-73
2021/06/02 03:49:53;;;;;;;10.02;9.18;;;10.10;71.30;;;;;;5189512;28;20592;-73
2021/06/02 03:52:46;;;;;;;9.32;8.52;;;10.10;71.90;;;;;;5169922;28;20076;-73
2021/06/02 03:55:31;;;;;;;9.85;8.75;;;10.10;71.20;;;;;;5186917;28;20057;-74
2021/06/02 03:58:13;;;;;;;9.63;8.65;;;10.10;71.70;;;;;;5186494;28;20056;-74
2021/06/02 04:00:52;;;;;;;8.80;7.90;;;10.10;71.30;;;;;;5185558;28;20073;-74
2021/06/02 04:03:46;;;;;;;9.48;8.57;;;10.10;71.20;;;;;;5185114;28;20127;-75
2021/06/02 04:06:40;;;;;;;9.15;8.25;;;10.10;71.00;;;;;;5186947;28;20045;-74
2021/06/02 04:09:20;;;;;;;8.85;8.05;;;10.10;71.60;;;;;;5175384;28;20045;-75
2021/06/02 04:12:17;;;;;;;9.10;8.23;;;10.10;72.20;;;;;;5188719;28;20453;-74
2021/06/02 04:14:55;;;;;;;9.30;8.50;;;10.10;71.90;;;;;;5180356;28;20076;-74
2021/06/02 04:17:27;;;;;;;9.32;8.50;;;10.10;72.00;;;;;;5188452;28;20045;-74
2021/06/02 04:20:02;;;;;;;13.43;8.57;;;10.10;71.60;;;;;;5188462;28;20087;-74
2021/06/02 04:22:36;;;;;;;9.60;8.60;;;10.10;71.50;;;;;;5189794;28;20045;-75
2021/06/02 04:25:09;;;;;;;9.20;8.35;;;10.10;71.70;;;;;;5189754;28;20050;-74
2021/06/02 04:27:46;;;;;;;10.18;9.07;;;10.10;71.80;;;;;;5191391;28;20564;-73
2021/06/02 04:30:18;;;;;;;8.77;7.97;;;10.10;72.50;;;;;;5190667;28;20045;-74
2021/06/02 04:32:55;;;;;;;9.57;8.68;;;10.10;71.60;;;;;;5173537;28;20046;-73
2021/06/02 04:35:30;;;;;;;8.88;8.05;;;10.30;72.60;;;;;;5178784;28;20045;-73
2021/06/02 04:38:02;;;;;;;9.60;8.70;;;10.40;73.70;;;;;;5189494;28;20509;-73
2021/06/02 04:40:39;;;;;;;9.77;8.77;;;10.40;73.50;;;;;;5171025;28;20053;-73
2021/06/02 04:43:11;;;;;;;9.43;8.48;;;10.50;73.10;;;;;;5187611;28;20132;-72
2021/06/02 04:45:57;;;;;;;9.35;8.40;;;10.60;72.60;;;;;;5188678;28;20164;-74
2021/06/02 04:48:30;;;;;;;9.90;9.00;;;10.80;73.00;;;;;;5190718;28;20046;-73
2021/06/02 04:51:19;;;;;;;9.63;8.82;;;10.90;73.80;;;;;;5189217;28;20053;-73
2021/06/02 04:54:36;;;;;;;8.35;7.55;;;11.00;73.60;;;;;;5189904;28;20133;-73
2021/06/02 04:57:46;;;;;;;9.05;8.25;;;11.20;72.20;;;;;;5165859;28;20049;-73
2021/06/02 05:00:25;;;;;;;8.50;7.70;;;11.40;72.40;;;;;;5189057;28;20404;-74
2021/06/02 05:03:30;;;;;;;8.50;7.68;;;11.60;71.60;;;;;;5189441;28;20053;-74
2021/06/02 05:06:40;;;;;;;8.40;7.63;;;11.70;72.00;;;;;;5187094;28;20526;-74
2021/06/02 05:10:02;;;;;;;8.40;7.60;;;12.00;71.20;;;;;;5191308;28;20766;-74
2021/06/02 05:12:55;;;;;;;9.32;8.32;;;12.20;70.70;;;;;;5188218;28;20124;-73
2021/06/02 05:15:46;;;;;;;9.80;7.72;;;12.30;70.40;;;;;;5188505;28;20129;-73
2021/06/02 05:18:50;;;;;;;8.95;8.05;;;12.50;70.30;;;;;;5189373;28;20113;-74
2021/06/02 05:22:06;;;;;;;9.30;7.75;;;12.80;70.20;;;;;;5188246;28;20112;-74
2021/06/02 05:25:15;;;;;;;9.55;8.65;;;12.90;69.10;;;;;;5153495;28;20061;-73
2021/06/02 05:28:07;;;;;;;9.32;8.43;;;13.10;68.30;;;;;;5189505;28;20069;-73
2021/06/02 05:30:57;;;;;;;9.30;8.40;;;13.40;67.90;;;;;;5189565;28;20148;-71
2021/06/02 05:33:56;;;;;;;;;;;13.50;66.40;;;;;;5185415;28;20138;-73
2021/06/02 05:36:42;;;;;;;9.25;7.90;;;13.70;67.60;;;;;;5186307;28;20343;-73
2021/06/02 05:39:47;;;;;;;8.82;7.72;;;13.90;65.80;;;;;;5188365;28;20049;-73
2021/06/02 05:42:33;;;;;;;9.23;8.38;;;14.00;66.40;;;;;;5184504;28;20775;-73
2021/06/02 05:45:56;;;;;;;9.75;8.88;;;14.20;65.70;;;;;;5184397;28;20070;-74
2021/06/02 05:49:04;;;;;;;9.65;8.75;;;14.40;66.30;;;;;;5152997;28;20057;-73
2021/06/02 05:52:01;;;;;;;9.38;8.55;;;14.60;65.50;;;;;;5189950;28;20038;-73
2021/06/02 05:55:11;;;;;;;9.25;8.45;;;14.80;62.10;;;;;;5189941;28;20121;-73
2021/06/02 05:58:23;;;;;;;9.73;8.82;;;14.90;62.40;;;;;;5147885;28;20050;-74
2021/06/02 06:01:22;;;;;;;10.05;9.15;;;15.10;64.00;;;;;;5185659;28;20415;-73
2021/06/02 06:04:27;;;;;;;8.98;8.07;;;15.30;63.10;;;;;;5181728;28;20069;-73
2021/06/02 06:07:18;;;;;;;9.52;8.63;;;15.50;63.30;;;;;;5187274;28;20160;-73
2021/06/02 06:10:10;;;;;;;9.13;8.25;;;15.70;61.20;;;;;;5187560;28;20045;-71
2021/06/02 06:13:19;;;;;;;9.85;8.77;;;15.80;61.20;;;;;;5187083;28;20045;-72
2021/06/02 06:16:34;;;;;;;9.20;8.40;;;16.00;61.00;;;;;;5185771;28;20037;-72
2021/06/02 06:19:41;;;;;;;9.18;8.27;;;16.00;60.80;;;;;;5158929;28;20057;-73
2021/06/02 06:22:50;;;;;;;9.43;8.50;;;16.20;59.30;;;;;;5186460;28;20042;-72
2021/06/02 06:25:31;;;;;;;9.93;8.93;;;16.30;57.70;;;;;;5185696;28;20460;-72
2021/06/02 06:28:26;;;;;;;;;;;16.50;58.30;;;;;;5188330;28;20045;-71
2021/06/02 06:30:59;;;;;;;9.40;8.60;;;16.60;55.10;;;;;;5186235;28;19925;-73
2021/06/02 06:33:33;;;;;;;9.90;8.90;;;16.80;54.80;;;;;;5186297;28;20052;-72
2021/06/02 06:36:07;;;;;;;9.63;8.80;;;16.90;60.20;;;;;;5187768;28;20046;-73
2021/06/02 06:38:58;;;;;;;9.35;8.55;;;17.00;53.80;;;;;;5171478;28;20087;-73
2021/06/02 06:41:32;;;;;;;;;;;17.00;53.00;;;;;;5185383;28;20060;-72
2021/06/02 06:44:05;;;;;;;11.50;9.15;;;17.20;58.50;;;;;;5187419;28;19956;-72
2021/06/02 06:46:38;;;;;;;10.30;9.15;;;17.30;57.90;;;;;;5189451;28;20071;-72
2021/06/02 06:49:12;;;;;;;12.43;9.13;;;17.50;60.90;;;;;;5186727;28;20054;-72
2021/06/02 06:51:52;;;;;;;11.10;10.00;;;17.60;59.40;;;;;;5183806;28;20613;-72
2021/06/02 06:54:24;;;;;;;11.20;9.85;;;17.70;58.90;;;;;;5186247;28;20049;-72
2021/06/02 06:56:56;;;;;;;11.07;10.07;;;17.80;58.30;;;;;;5186136;28;20088;-73
2021/06/02 06:59:28;;;;;;;12.00;10.25;;;17.90;60.80;;;;;;5187921;28;20145;-72
2021/06/02 07:02:01;;;;;;;11.25;10.02;;;18.00;58.30;;;;;;5182856;28;20097;-73
2021/06/02 07:04:34;;;;;;;11.60;9.77;;;18.10;58.60;;;;;;5185853;28;20116;-72
2021/06/02 07:07:08;;;;;;;10.70;9.80;;;18.20;57.80;;;;;;5185399;28;20053;-72
2021/06/02 07:09:40;;;;;;;10.63;9.52;;;18.30;60.00;;;;;;5186344;28;20069;-72
2021/06/02 07:12:15;;;;;;;11.52;9.80;;;18.40;60.60;;;;;;5184323;28;20049;-72
2021/06/02 07:14:52;;;;;;;11.05;10.15;;;18.60;59.40;;;;;;5186726;28;20126;-73
2021/06/02 07:17:24;;;;;;;11.10;10.10;;;18.70;57.20;;;;;;5185680;28;20064;-73
2021/06/02 07:20:01;;;;;;;11.40;10.48;;;18.70;56.70;;;;;;5186850;28;20042;-72
2021/06/02 07:22:41;;;;;;;11.98;10.77;;;18.80;54.70;;;;;;5186243;28;20045;-73
2021/06/02 07:25:15;;;;;;;11.82;10.82;;;18.90;56.20;;;;;;5172446;28;20676;-73
2021/06/02 07:27:49;;;;;;;12.68;11.48;;;19.00;55.50;;;;;;5175535;28;20049;-74
2021/06/02 07:30:26;;;;;;;12.27;11.18;;;19.10;56.10;;;;;;5185504;28;20092;-72
2021/06/02 07:32:58;;;;;;;11.73;10.73;;;19.20;54.70;;;;;;5183342;28;20045;-72
2021/06/02 07:35:31;;;;;;;12.23;11.20;;;19.30;52.40;;;;;;5182508;28;20083;-71
2021/06/02 07:38:02;;;;;;;11.88;10.90;;;19.30;54.60;;;;;;5187094;28;20041;-73
2021/06/02 07:40:35;;;;;;;12.45;11.18;;;19.50;52.90;;;;;;5185553;28;20605;-73
2021/06/02 07:43:07;;;;;;;11.63;10.52;;;19.50;51.80;;;;;;5182502;28;20714;-72
2021/06/02 07:45:39;;;;;;;12.13;11.13;;;19.60;53.80;;;;;;5184407;28;20054;-73
2021/06/02 07:48:14;;;;;;;12.15;11.05;;;19.70;54.40;;;;;;5164870;28;20095;-73
2021/06/02 07:50:46;;;;;;;12.07;11.07;;;19.80;55.40;;;;;;5184089;28;20456;-73
2021/06/02 07:53:18;;;;;;;11.77;10.77;;;19.90;49.70;;;;;;5172257;28;20081;-73
2021/06/02 07:55:50;;;;;;;11.95;10.95;;;20.00;51.70;;;;;;5183133;28;20100;-72
2021/06/02 07:58:23;;;;;;;11.70;10.63;;;20.00;51.30;;;;;;5186711;28;20517;-72
2021/06/02 08:00:55;;;;;;;11.82;10.60;;;20.20;50.90;;;;;;5185290;28;20854;-73
2021/06/02 08:03:27;;;;;;;12.05;11.05;;;20.30;51.90;;;;;;5184982;28;20069;-72
2021/06/02 08:05:59;;;;;;;12.02;10.93;;;20.30;51.10;;;;;;5183410;28;20469;-73
2021/06/02 08:08:31;;;;;;;11.73;10.50;;;20.50;50.90;;;;;;5187624;28;20825;-73
2021/06/02 08:11:03;;;;;;;11.18;10.27;;;20.60;48.40;;;;;;5183810;28;20111;-73
2021/06/02 08:13:35;;;;;;;11.18;10.18;;;20.60;49.10;;;;;;5170238;28;20535;-73
2021/06/02 08:16:08;;;;;;;11.80;10.70;;;20.70;48.00;;;;;;5186538;28;20613;-73
2021/06/02 08:18:40;;;;;;;11.40;10.50;;;20.80;45.20;;;;;;5186210;28;20049;-73
2021/06/02 08:21:12;;;;;;;11.50;10.45;;;20.80;46.80;;;;;;5186263;28;20509;-73
2021/06/02 08:23:44;;;;;;;10.98;10.07;;;21.00;43.70;;;;;;5184790;28;20050;-73
2021/06/02 08:26:16;;;;;;;10.65;9.75;;;21.00;47.70;;;;;;5187046;28;20065;-72
2021/06/02 08:28:48;;;;;;;11.55;10.40;;;21.10;48.80;;;;;;5183246;28;20091;-73
2021/06/02 08:31:19;;;;;;;10.90;10.00;;;21.30;48.40;;;;;;5183248;28;20773;-73
2021/06/02 08:33:51;;;;;;;11.50;9.98;;;21.40;50.10;;;;;;5169887;28;20113;-73
2021/06/02 08:36:24;;;;;;;11.90;10.65;;;21.40;49.40;;;;;;5165727;28;20041;-73
2021/06/02 08:38:56;;;;;;;12.30;10.23;;;21.60;47.10;;;;;;5184092;28;20042;-73
2021/06/02 08:41:29;;;;;;;11.27;10.38;;;21.70;47.90;;;;;;5186272;28;20154;-73
2021/06/02 08:44:01;;;;;;;11.50;10.30;;;21.80;48.10;;;;;;5184383;28;20099;-73
2021/06/02 08:46:35;;;;;;;11.18;10.18;;;22.00;49.90;;;;;;5187528;28;20069;-73
2021/06/02 08:49:18;;;;;;;10.80;9.73;;;22.10;49.40;;;;;;5174355;28;20037;-73
2021/06/02 08:51:52;;;;;;;10.93;9.88;;;22.20;47.40;;;;;;5182772;28;20042;-73
2021/06/02 08:54:25;;;;;;;10.60;9.70;;;22.20;40.00;;;;;;5188451;28;20053;-73
2021/06/02 08:57:00;;;;;;;10.88;9.98;;;22.40;41.90;;;;;;5187984;28;20125;-74
2021/06/02 08:59:32;;;;;;;11.57;10.48;;;22.40;40.60;;;;;;5181127;28;20151;-73
2021/06/02 09:02:04;;;;;;;11.23;10.13;;;22.50;47.20;;;;;;5186657;28;20829;-73
2021/06/02 09:04:36;;;;;;;10.85;9.85;;;22.60;44.30;;;;;;5188295;28;20096;-73
2021/06/02 09:07:09;;;;;;;10.65;9.65;;;22.70;44.00;;;;;;5188954;28;20072;-73
2021/06/02 09:09:41;;;;;;;10.88;9.95;;;22.80;43.10;;;;;;5188516;28;20046;-73
2021/06/02 09:12:15;;;;;;;11.05;10.15;;;22.90;45.50;;;;;;5186357;28;20054;-73
2021/06/02 09:14:47;;;;;;;11.30;10.10;;;23.00;44.50;;;;;;5173528;28;20444;-73
2021/06/02 09:17:19;;;;;;;11.38;10.30;;;23.00;44.60;;;;;;5183030;28;20135;-72
2021/06/02 09:19:53;;;;;;;11.38;10.38;;;23.00;45.80;;;;;;5188825;28;20045;-73
2021/06/02 09:22:25;;;;;;;11.07;10.07;;;23.10;41.50;;;;;;5188981;28;20074;-73
2021/06/02 09:25:03;;;;;;;11.75;10.13;;;23.10;44.30;;;;;;5173726;28;20065;-73
2021/06/02 09:27:55;;;;;;;10.98;10.07;;;23.20;39.70;;;;;;5185497;28;20049;-73
2021/06/02 09:30:33;;;;;;;11.73;10.63;;;23.20;43.80;;;;;;5189281;28;20091;-72
2021/06/02 09:33:05;;;;;;;10.95;10.05;;;23.30;42.10;;;;;;5187883;28;20481;-73
2021/06/02 09:35:42;;;;;;;10.95;10.05;;;23.50;45.50;;;;;;5173621;28;20037;-74
2021/06/02 09:38:25;;;;;;;11.75;10.65;;;23.60;40.00;;;;;;5187991;28;20414;-73
2021/06/02 09:40:57;;;;;;;11.50;10.50;;;23.60;42.30;;;;;;5187151;28;20104;-73
2021/06/02 09:43:30;;;;;;;11.48;10.57;;;23.60;39.80;;;;;;5171548;28;20580;-72
2021/06/02 09:46:14;;;;;;;11.32;10.38;;;23.60;39.00;;;;;;5174369;28;20116;-73
2021/06/02 09:49:00;;;;;;;11.10;10.20;;;23.70;42.40;;;;;;5163472;28;20069;-72
2021/06/02 09:51:39;;;;;;;11.20;10.20;;;23.80;42.60;;;;;;5167689;28;20459;-73
2021/06/02 09:54:11;;;;;;;10.90;9.90;;;23.50;36.40;;;;;;5188033;28;20052;-73
2021/06/02 09:56:44;;;;;;;10.25;9.45;;;23.20;40.80;;;;;;5191659;28;20044;-73
2021/06/02 09:59:18;;;;;;;10.40;9.50;;;23.10;39.40;;;;;;5188474;28;20052;-72
2021/06/02 10:02:01;;;;;;;10.55;9.65;;;23.00;37.20;;;;;;5177191;28;20464;-71
2021/06/02 10:04:35;;;;;;;10.77;9.88;;;23.10;33.20;;;;;;5187913;28;20120;-73
2021/06/02 10:07:19;;;;;;;10.88;9.98;;;23.20;36.20;;;;;;5188028;28;20507;-72
2021/06/02 10:09:51;;;;;;;10.73;9.65;;;23.30;37.20;;;;;;5185761;28;20128;-72
2021/06/02 10:12:23;;;;;;;11.02;10.07;;;23.50;34.00;;;;;;5188356;28;20077;-71
2021/06/02 10:14:57;;;;;;;11.00;10.10;;;23.60;36.80;;;;;;5185536;28;20094;-72
2021/06/02 10:17:38;;;;;;;10.35;9.45;;;23.80;35.20;;;;;;5185260;28;20050;-72
2021/06/02 10:20:12;;;;;;;10.65;9.68;;;23.70;36.80;;;;;;5185934;28;20132;-73
2021/06/02 10:22:59;;;;;;;10.43;9.40;;;23.60;34.50;;;;;;5169966;28;20510;-72
2021/06/02 10:25:31;;;;;;;10.23;9.25;;;23.40;34.80;;;;;;5186201;28;20037;-72
2021/06/02 10:28:05;;;;;;;10.32;9.43;;;23.10;34.30;;;;;;5184407;28;20137;-72
2021/06/02 10:30:37;;;;;;;10.90;10.00;;;22.90;33.40;;;;;;5177036;28;20816;-73
2021/06/02 10:33:09;;;;;;;12.02;10.80;;;22.90;36.60;;;;;;5186732;28;20057;-72
2021/06/02 10:35:41;;;;;;;12.30;11.30;;;23.20;38.30;;;;;;5186004;28;20595;-72
2021/06/02 10:38:15;;;;;;;14.32;11.77;;;23.20;38.20;;;;;;5187924;28;20128;-73
2021/06/02 10:40:48;;;;;;;12.20;11.30;;;23.00;37.30;;;;;;5183191;28;20057;-73
2021/06/02 10:43:23;;;;;;;12.25;11.25;;;23.00;36.70;;;;;;5173567;28;20054;-73
2021/06/02 10:46:07;;;;;;;12.50;11.50;;;23.00;36.60;;;;;;5185117;28;20152;-73
2021/06/02 10:48:51;;;;;;;13.25;12.00;;;23.20;36.20;;;;;;5185676;28;20085;-73
2021/06/02 10:51:31;;;;;;;12.23;11.32;;;23.40;33.80;;;;;;5180966;28;20864;-72
2021/06/02 10:54:11;;;;;;;12.77;11.77;;;23.40;35.50;;;;;;5187321;28;20130;-74
2021/06/02 10:56:59;;;;;;;12.13;11.23;;;23.60;36.20;;;;;;5182259;28;20132;-72
2021/06/02 10:59:35;;;;;;;12.50;11.50;;;23.60;33.80;;;;;;5193087;28;20112;-73
2021/06/02 11:02:30;;;;;;;12.70;11.70;;;23.60;36.40;;;;;;5165937;28;20464;-73
2021/06/02 11:05:06;;;;;;;13.32;12.23;;;23.80;32.50;;;;;;5175910;28;20107;-72
2021/06/02 11:07:51;;;;;;;13.65;12.55;;;23.70;36.00;;;;;;5185673;28;20041;-72
2021/06/02 11:10:31;;;;;;;12.88;11.77;;;23.80;35.90;;;;;;5185899;28;20042;-72
2021/06/02 11:13:05;;;;;;;12.98;11.98;;;23.90;35.20;;;;;;5185882;28;20077;-74
2021/06/02 11:15:37;;;;;;;12.38;11.48;;;24.20;34.80;;;;;;5187114;28;20045;-73
2021/06/02 11:18:09;;;;;;;12.88;11.90;;;24.30;35.70;;;;;;5166965;28;20073;-72
2021/06/02 11:20:50;;;;;;;13.02;12.02;;;24.50;34.00;;;;;;5185567;28;20762;-72
2021/06/02 11:23:30;;;;;;;12.77;11.77;;;24.60;33.00;;;;;;5186840;28;20064;-73
2021/06/02 11:26:22;;;;;;;12.48;11.57;;;24.30;33.20;;;;;;5186666;28;20069;-73
2021/06/02 11:28:55;;;;;;;12.75;11.75;;;24.50;33.90;;;;;;5185658;28;20071;-72
2021/06/02 11:31:29;;;;;;;13.27;12.18;;;24.60;30.50;;;;;;5182000;28;20048;-71
2021/06/02 11:34:29;;;;;;;13.18;11.95;;;24.60;33.70;;;;;;5186470;28;20549;-72
2021/06/02 11:37:03;;;;;;;13.38;12.38;;;24.30;30.90;;;;;;5171986;28;20076;-72
2021/06/02 11:39:37;;;;;;;13.23;12.27;;;24.40;31.50;;;;;;5185716;28;20107;-73
2021/06/02 11:42:29;;;;;;;13.07;12.18;;;24.80;36.80;;;;;;5184475;28;20048;-71
2021/06/02 11:45:08;;;;;;;13.27;12.27;;;24.90;32.90;;;;;;5170690;28;20123;-72
2021/06/02 11:48:01;;;;;;;12.53;11.63;;;25.20;35.00;;;;;;5169115;28;20081;-72
2021/06/02 11:50:33;;;;;;;13.07;12.15;;;25.50;30.00;;;;;;5175616;28;20104;-72
2021/06/02 11:53:05;;;;;;;13.32;12.25;;;25.50;30.00;;;;;;5189486;28;20107;-72
2021/06/02 11:55:39;;;;;;;13.32;12.25;;;25.40;34.20;;;;;;5188092;28;20041;-72
2021/06/02 11:58:11;;;;;;;13.27;12.27;;;25.40;33.90;;;;;;5185975;28;20054;-72
2021/06/02 12:00:43;;;;;;;13.57;12.48;;;25.50;32.70;;;;;;5186707;28;20092;-72
2021/06/02 12:03:14;;;;;;;13.35;12.25;;;25.50;33.40;;;;;;5167201;28;20115;-72
2021/06/02 12:05:49;;;;;;;13.27;12.27;;;25.40;34.60;;;;;;5185611;28;20049;-72
2021/06/02 12:08:22;;;;;;;13.18;12.20;;;25.20;33.70;;;;;;5185069;28;20053;-72
2021/06/02 12:10:57;;;;;;;13.32;12.25;;;25.10;34.20;;;;;;5184016;28;20865;-71
2021/06/02 12:13:35;;;;;;;13.02;11.95;;;25.40;32.20;;;;;;5185815;28;20038;-71
2021/06/02 12:16:09;;;;;;;13.27;12.10;;;25.60;29.70;;;;;;5187588;28;20135;-71
2021/06/02 12:18:44;;;;;;;13.43;12.45;;;25.80;30.50;;;;;;5169698;28;20602;-71
2021/06/02 12:21:21;;;;;;;13.82;12.82;;;26.00;31.50;;;;;;5185013;28;20049;-70
2021/06/02 12:23:53;;;;;;;13.52;12.43;;;26.20;32.40;;;;;;5183253;28;20092;-72
2021/06/02 12:26:29;;;;;;;13.80;12.80;;;26.20;30.70;;;;;;5184687;28;20049;-72
2021/06/02 12:29:04;;;;;;;13.30;12.30;;;26.30;31.00;;;;;;5188888;28;20085;-72
2021/06/02 12:31:42;;;;;;;13.27;12.27;;;26.10;33.00;;;;;;5190521;28;20472;-73
2021/06/02 12:34:26;;;;;;;13.00;12.00;;;25.90;33.00;;;;;;5188431;28;20073;-73
2021/06/02 12:37:01;;;;;;;13.50;12.40;;;25.60;32.50;;;;;;5192757;28;20637;-73
2021/06/02 12:39:34;;;;;;;13.18;12.20;;;25.60;33.50;;;;;;5193004;28;20980;-72
2021/06/02 12:42:08;;;;;;;13.45;12.38;;;25.60;34.90;;;;;;5189074;28;20037;-75
2021/06/02 12:44:40;;;;;;;13.15;12.23;;;25.40;30.20;;;;;;5171907;28;20119;-73
2021/06/02 12:47:15;;;;;;;13.57;12.57;;;25.30;35.10;;;;;;5190865;28;20136;-73
2021/06/02 12:49:48;;;;;;;13.82;12.82;;;25.60;35.90;;;;;;5175856;28;20504;-74
2021/06/02 12:52:40;;;;;;;13.85;12.85;;;25.80;33.50;;;;;;5185248;28;20108;-74
2021/06/02 12:55:13;;;;;;;13.63;12.63;;;26.00;29.30;;;;;;5183309;28;20495;-73
2021/06/02 12:57:56;;;;;;;14.10;13.00;;;26.20;34.30;;;;;;5184955;28;20046;-74
2021/06/02 13:00:29;;;;;;;13.60;12.60;;;26.50;33.90;;;;;;5186043;28;20122;-74
2021/06/02 13:03:01;;;;;;;13.85;12.80;;;26.70;33.90;;;;;;5187714;28;20128;-75
2021/06/02 13:05:34;;;;;;;13.93;12.82;;;26.50;30.10;;;;;;5189910;28;20041;-75
2021/06/02 13:08:08;;;;;;;13.57;12.48;;;26.20;32.30;;;;;;5186563;28;20854;-74
2021/06/02 13:10:44;;;;;;;14.30;13.10;;;25.90;30.50;;;;;;5188083;28;20046;-74
2021/06/02 13:13:17;;;;;;;14.27;13.07;;;25.90;29.80;;;;;;5187045;28;20155;-74
2021/06/02 13:15:55;;;;;;;14.30;13.10;;;26.10;32.80;;;;;;5187467;28;20065;-74
2021/06/02 13:18:29;;;;;;;14.60;13.50;;;26.40;35.00;;;;;;5189279;28;20131;-74
2021/06/02 13:21:27;;;;;;;14.75;13.50;;;26.60;32.80;;;;;;5188635;28;20045;-75
2021/06/02 13:24:15;;;;;;;14.50;13.27;;;26.60;35.00;;;;;;5186892;28;20049;-74
2021/06/02 13:26:52;;;;;;;14.38;13.38;;;26.70;30.60;;;;;;5180679;28;20078;-75
2021/06/02 13:29:24;;;;;;;14.65;13.40;;;26.80;32.70;;;;;;5189460;28;20224;-75
2021/06/02 13:31:59;;;;;;;14.48;13.23;;;27.00;28.80;;;;;;5185593;28;20137;-75
2021/06/02 13:34:36;;;;;;;14.80;13.70;;;27.00;31.70;;;;;;5187897;28;20098;-76
2021/06/02 13:37:19;;;;;;;14.90;13.80;;;27.10;32.30;;;;;;5184907;28;20050;-76
2021/06/02 13:40:12;;;;;;;13.98;12.98;;;27.20;33.90;;;;;;5187457;28;20141;-75
2021/06/02 13:43:10;;;;;;;13.90;12.88;;;27.30;29.50;;;;;;5189188;28;20089;-75
2021/06/02 13:46:06;;;;;;;14.40;13.35;;;27.30;34.10;;;;;;5173343;28;20061;-76
2021/06/02 13:48:44;;;;;;;15.02;13.82;;;27.20;31.50;;;;;;5187217;28;20050;-75